Time;durP1;ratioP1;P1;durP2;ratioP2;P2;SDS_P1;SDS_P2;PMS_P1;PMS_P2;Temp;Humidity;BMP_temperature;BMP_pressure;BME280_temperature;BME280_humidity;BME280_pressure;Samples;Min_cycle;Max_cycle;Signal;HPM_P1;HPM_P2
2022/04/10 00:00:37;;;;;;;3.42;2.17;;;3.90;91.10;;;;;;5037305;28;20104;-66
2022/04/10 00:03:03;;;;;;;7.53;2.22;;;3.90;91.20;;;;;;5049045;28;20405;-65
2022/04/10 00:05:29;;;;;;;4.68;2.00;;;3.90;91.20;;;;;;5033942;28;20388;-65
2022/04/10 00:07:55;;;;;;;4.93;1.42;;;3.90;91.30;;;;;;5034178;28;20036;-66
2022/04/10 00:10:21;;;;;;;4.10;1.40;;;3.90;91.30;;;;;;5034040;28;20040;-66
2022/04/10 00:12:46;;;;;;;3.80;1.40;;;3.90;91.30;;;;;;5028302;28;20029;-66
2022/04/10 00:15:12;;;;;;;6.63;1.75;;;3.80;91.40;;;;;;5031091;28;20029;-66
2022/04/10 00:17:39;;;;;;;6.65;1.65;;;3.80;91.50;;;;;;5033967;28;20036;-65
2022/04/10 00:20:05;;;;;;;4.88;1.50;;;3.80;91.50;;;;;;5029929;28;20025;-66
2022/04/10 00:22:31;;;;;;;5.05;1.58;;;3.80;91.60;;;;;;5030730;28;20060;-65
2022/04/10 00:24:56;;;;;;;4.30;1.50;;;3.70;91.60;;;;;;5040856;28;20028;-66
2022/04/10 00:27:22;;;;;;;3.67;1.63;;;3.70;91.60;;;;;;5040767;28;20618;-65
2022/04/10 00:29:48;;;;;;;2.63;1.40;;;3.60;91.80;;;;;;5038386;28;20037;-65
2022/04/10 00:32:13;;;;;;;3.13;1.40;;;3.60;91.80;;;;;;5028263;28;20469;-66
2022/04/10 00:34:39;;;;;;;5.22;1.80;;;3.60;91.90;;;;;;5027710;28;20021;-65
2022/04/10 00:37:05;;;;;;;5.80;1.50;;;3.60;92.00;;;;;;5033339;28;20028;-65
2022/04/10 00:39:30;;;;;;;4.55;1.67;;;3.50;92.00;;;;;;5039260;28;20036;-65
2022/04/10 00:41:56;;;;;;;3.30;1.65;;;3.50;92.00;;;;;;5026800;28;20355;-65
2022/04/10 00:44:22;;;;;;;3.58;1.40;;;3.50;92.10;;;;;;5036556;28;20514;-66
2022/04/10 00:46:49;;;;;;;6.95;2.03;;;3.40;92.10;;;;;;5033699;28;20480;-65
2022/04/10 00:49:15;;;;;;;5.65;1.90;;;3.40;92.20;;;;;;5030492;28;20021;-66
2022/04/10 00:51:44;;;;;;;5.75;1.75;;;3.40;92.30;;;;;;5035207;28;20032;-65
2022/04/10 00:54:15;;;;;;;3.83;1.88;;;3.40;92.30;;;;;;5030544;28;20024;-66
2022/04/10 00:56:41;;;;;;;3.65;1.58;;;3.40;92.40;;;;;;5026597;28;20029;-66
2022/04/10 00:59:07;;;;;;;3.90;1.60;;;3.30;92.40;;;;;;5030556;28;20025;-65
2022/04/10 01:01:34;;;;;;;5.68;1.65;;;3.40;92.40;;;;;;5036683;28;20491;-65
2022/04/10 01:04:00;;;;;;;2.85;1.40;;;3.30;92.40;;;;;;5036020;28;20354;-66
2022/04/10 01:06:26;;;;;;;4.20;1.92;;;3.30;92.40;;;;;;5030829;28;20206;-66
2022/04/10 01:08:51;;;;;;;7.50;2.78;;;3.30;92.50;;;;;;5033060;28;20025;-65
2022/04/10 01:11:17;;;;;;;9.73;2.83;;;3.30;92.60;;;;;;5030532;28;20022;-65
2022/04/10 01:13:43;;;;;;;4.88;2.63;;;3.20;92.60;;;;;;5030697;28;20036;-66
2022/04/10 01:16:09;;;;;;;4.72;2.42;;;3.20;92.70;;;;;;5038496;28;20032;-65
2022/04/10 01:18:35;;;;;;;5.65;2.03;;;3.20;92.80;;;;;;5032885;28;20025;-66
2022/04/10 01:21:03;;;;;;;4.22;2.00;;;3.20;92.80;;;;;;5036481;28;20021;-65
2022/04/10 01:23:29;;;;;;;4.07;2.10;;;3.10;92.90;;;;;;5033612;28;20432;-66
2022/04/10 01:25:54;;;;;;;3.80;1.88;;;3.10;92.90;;;;;;5030582;28;20029;-66
2022/04/10 01:28:20;;;;;;;4.80;1.80;;;3.10;93.00;;;;;;5031941;28;20422;-66
2022/04/10 01:30:45;;;;;;;3.55;1.88;;;3.10;93.00;;;;;;5042651;28;20057;-66
2022/04/10 01:33:11;;;;;;;4.97;1.83;;;3.10;93.00;;;;;;5032880;28;20037;-65
2022/04/10 01:35:38;;;;;;;3.40;1.65;;;3.10;93.00;;;;;;5035912;28;20219;-66
2022/04/10 01:38:05;;;;;;;3.13;1.30;;;3.10;93.00;;;;;;5038365;28;20022;-66
2022/04/10 01:40:31;;;;;;;4.88;2.15;;;3.10;93.00;;;;;;5036163;28;20026;-66
2022/04/10 01:42:57;;;;;;;3.63;1.73;;;3.10;93.10;;;;;;5032605;28;20547;-66
2022/04/10 01:45:23;;;;;;;4.25;1.65;;;3.10;93.10;;;;;;5030091;28;20108;-66
2022/04/10 01:47:52;;;;;;;4.30;1.70;;;3.10;93.10;;;;;;5038409;28;20164;-67
2022/04/10 01:50:19;;;;;;;6.13;1.83;;;3.10;93.10;;;;;;5033935;28;20029;-66
2022/04/10 01:52:45;;;;;;;5.07;2.03;;;3.10;93.20;;;;;;5029606;28;20021;-67
2022/04/10 01:55:11;;;;;;;3.75;1.88;;;3.10;93.20;;;;;;5034091;28;20022;-66
2022/04/10 01:57:36;;;;;;;6.03;1.92;;;3.10;93.20;;;;;;5041631;28;20025;-66
2022/04/10 02:00:04;;;;;;;4.20;1.98;;;3.10;93.20;;;;;;5033688;28;20026;-67
2022/04/10 02:02:29;;;;;;;5.55;1.83;;;3.10;93.30;;;;;;5036470;28;20029;-66
2022/04/10 02:04:55;;;;;;;5.22;2.05;;;3.00;93.30;;;;;;5035813;28;20032;-67
2022/04/10 02:07:21;;;;;;;4.22;1.15;;;3.00;93.30;;;;;;5033473;28;20031;-67
2022/04/10 02:09:46;;;;;;;5.60;1.55;;;3.00;93.30;;;;;;5035594;28;20489;-67
2022/04/10 02:12:12;;;;;;;3.72;1.30;;;3.00;93.40;;;;;;5042713;28;20511;-67
2022/04/10 02:14:37;;;;;;;4.30;1.45;;;3.00;93.40;;;;;;5030878;28;20164;-67
2022/04/10 02:17:03;;;;;;;6.50;1.58;;;3.00;93.40;;;;;;5031849;28;20481;-67
2022/04/10 02:19:29;;;;;;;4.43;1.55;;;3.00;93.40;;;;;;5041059;28;20036;-66
2022/04/10 02:21:57;;;;;;;3.88;1.10;;;3.00;93.50;;;;;;5038723;28;20512;-67
2022/04/10 02:24:23;;;;;;;4.57;1.35;;;3.00;93.50;;;;;;5033532;28;20086;-67
2022/04/10 02:26:48;;;;;;;4.18;1.88;;;3.00;93.60;;;;;;5035913;28;20112;-67
2022/04/10 02:29:14;;;;;;;2.63;1.48;;;3.00;93.60;;;;;;5042761;28;20194;-67
2022/04/10 02:31:39;;;;;;;3.95;1.50;;;3.00;93.60;;;;;;5040900;28;20033;-67
2022/04/10 02:34:05;;;;;;;4.15;1.40;;;2.90;93.60;;;;;;5038099;28;20087;-67
2022/04/10 02:36:30;;;;;;;3.80;1.52;;;2.90;93.60;;;;;;5039047;28;20512;-67
2022/04/10 02:38:56;;;;;;;3.03;1.27;;;2.90;93.70;;;;;;5038271;28;20037;-66
2022/04/10 02:41:21;;;;;;;3.47;1.00;;;2.90;93.70;;;;;;5037536;28;20028;-67
2022/04/10 02:43:47;;;;;;;3.80;1.50;;;2.90;93.70;;;;;;5033905;28;20034;-67
2022/04/10 02:46:12;;;;;;;3.35;1.25;;;2.90;93.70;;;;;;5029826;28;20366;-67
2022/04/10 02:48:38;;;;;;;3.17;1.20;;;2.90;93.80;;;;;;5032726;28;20041;-67
2022/04/10 02:51:03;;;;;;;2.45;1.20;;;2.80;93.80;;;;;;5040357;28;20162;-67
2022/04/10 02:53:30;;;;;;;4.82;1.58;;;2.80;93.90;;;;;;5038753;28;20104;-67
2022/04/10 02:55:56;;;;;;;2.88;1.63;;;2.80;93.90;;;;;;5036626;28;20091;-67
2022/04/10 02:58:21;;;;;;;4.05;1.45;;;2.80;94.00;;;;;;5043985;28;20017;-67
2022/04/10 03:00:48;;;;;;;4.75;1.77;;;2.80;94.00;;;;;;5036484;28;20061;-67
2022/04/10 03:03:13;;;;;;;5.78;1.65;;;2.80;94.10;;;;;;5035684;28;20377;-67
2022/04/10 03:05:39;;;;;;;3.50;1.30;;;2.80;94.10;;;;;;5038724;28;20025;-67
2022/04/10 03:08:05;;;;;;;3.92;1.70;;;2.80;94.20;;;;;;5029730;28;20452;-67
2022/04/10 03:10:30;;;;;;;3.28;1.60;;;2.80;94.20;;;;;;5032306;28;20029;-67
2022/04/10 03:12:56;;;;;;;5.05;1.98;;;2.70;94.20;;;;;;5034158;28;20021;-67
2022/04/10 03:15:21;;;;;;;4.28;2.28;;;2.70;94.30;;;;;;5034240;28;20060;-67
2022/04/10 03:17:47;;;;;;;4.32;1.73;;;2.80;94.40;;;;;;5036015;28;20453;-67
2022/04/10 03:20:13;;;;;;;5.53;1.80;;;2.70;94.30;;;;;;5030588;28;20101;-67
2022/04/10 03:22:39;;;;;;;3.75;1.35;;;2.70;94.40;;;;;;5038055;28;20060;-67
2022/04/10 03:25:05;;;;;;;2.70;1.33;;;2.70;94.40;;;;;;5045577;28;20036;-67
2022/04/10 03:27:30;;;;;;;3.88;1.83;;;2.70;94.50;;;;;;5032902;28;20537;-67
2022/04/10 03:29:56;;;;;;;3.65;1.52;;;2.70;94.50;;;;;;5036294;28;20116;-67
2022/04/10 03:32:21;;;;;;;5.35;1.75;;;2.70;94.50;;;;;;5033210;28;20428;-67
2022/04/10 03:34:47;;;;;;;2.53;1.25;;;2.70;94.60;;;;;;5036901;28;20027;-67
2022/04/10 03:37:12;;;;;;;3.03;1.20;;;2.70;94.60;;;;;;5031510;28;20576;-67
2022/04/10 03:39:38;;;;;;;3.25;1.33;;;2.70;94.60;;;;;;5034239;28;20075;-67
2022/04/10 03:42:04;;;;;;;3.08;1.35;;;2.70;94.70;;;;;;5031533;28;20029;-67
2022/04/10 03:44:29;;;;;;;2.88;1.50;;;2.70;94.70;;;;;;5036789;28;20032;-66
2022/04/10 03:46:55;;;;;;;3.70;2.00;;;2.70;94.70;;;;;;5033785;28;20029;-67
2022/04/10 03:49:20;;;;;;;4.15;2.05;;;2.70;94.80;;;;;;5030913;28;20021;-67
2022/04/10 03:51:46;;;;;;;5.95;1.58;;;2.70;94.80;;;;;;5036459;28;20037;-66
2022/04/10 03:54:11;;;;;;;4.10;1.90;;;2.80;94.80;;;;;;5037162;28;20025;-67
2022/04/10 03:56:37;;;;;;;4.15;1.73;;;2.80;94.80;;;;;;5033468;28;20160;-67
2022/04/10 03:59:02;;;;;;;3.40;1.80;;;2.80;94.90;;;;;;5031181;28;20171;-67
2022/04/10 04:01:28;;;;;;;2.83;1.20;;;2.70;94.90;;;;;;5033932;28;20037;-67
2022/04/10 04:03:53;;;;;;;2.53;1.30;;;2.70;94.90;;;;;;5030842;28;20588;-67
2022/04/10 04:06:19;;;;;;;2.63;1.23;;;2.70;95.00;;;;;;5041983;28;20028;-67
2022/04/10 04:08:44;;;;;;;2.33;1.50;;;2.70;95.00;;;;;;5037136;28;20029;-67
2022/04/10 04:11:10;;;;;;;2.42;1.38;;;2.70;95.00;;;;;;5045877;28;20017;-68
2022/04/10 04:13:40;;;;;;;3.65;1.30;;;2.60;95.00;;;;;;5031644;28;20018;-67
2022/04/10 04:16:06;;;;;;;3.40;1.40;;;2.70;95.10;;;;;;5038727;28;20022;-67
2022/04/10 04:18:32;;;;;;;2.15;1.17;;;2.60;95.10;;;;;;5040733;28;20013;-67
2022/04/10 04:20:58;;;;;;;4.50;1.73;;;2.60;95.10;;;;;;5031086;28;20035;-67
2022/04/10 04:23:24;;;;;;;3.85;1.65;;;2.60;95.20;;;;;;5031146;28;20117;-66
2022/04/10 04:25:50;;;;;;;3.72;1.50;;;2.60;95.20;;;;;;5031313;28;20143;-66
2022/04/10 04:28:15;;;;;;;5.18;1.58;;;2.60;95.30;;;;;;5036317;28;20475;-67
2022/04/10 04:30:41;;;;;;;2.83;1.45;;;2.60;95.30;;;;;;5028321;28;20034;-66
2022/04/10 04:33:07;;;;;;;3.15;1.30;;;2.60;95.30;;;;;;5026845;28;20021;-66
2022/04/10 04:35:33;;;;;;;4.00;1.63;;;2.60;95.40;;;;;;5031490;28;20075;-66
2022/04/10 04:38:00;;;;;;;4.22;2.17;;;2.60;95.40;;;;;;5029003;28;20097;-67
2022/04/10 04:40:25;;;;;;;3.38;1.20;;;2.60;95.40;;;;;;5031140;28;20029;-66
2022/04/10 04:42:51;;;;;;;4.65;1.38;;;2.60;95.40;;;;;;5031125;28;20041;-67
2022/04/10 04:45:18;;;;;;;2.42;1.45;;;2.60;95.50;;;;;;5033154;28;20025;-66
2022/04/10 04:47:44;;;;;;;3.25;1.40;;;2.60;95.50;;;;;;5036253;28;20087;-66
2022/04/10 04:50:09;;;;;;;7.05;1.63;;;2.50;95.50;;;;;;5027778;28;20693;-67
2022/04/10 04:52:35;;;;;;;2.90;1.65;;;2.60;95.60;;;;;;5030788;28;20105;-67
2022/04/10 04:55:00;;;;;;;3.03;1.50;;;2.50;95.60;;;;;;5035018;28;20025;-66
2022/04/10 04:57:26;;;;;;;4.85;1.80;;;2.50;95.60;;;;;;5034258;28;20481;-66
2022/04/10 04:59:51;;;;;;;4.43;2.03;;;2.50;95.60;;;;;;5036815;28;20025;-66
2022/04/10 05:02:17;;;;;;;2.72;1.13;;;2.60;95.70;;;;;;5032896;28;20033;-66
2022/04/10 05:04:42;;;;;;;2.78;1.25;;;2.50;95.70;;;;;;5028175;28;20096;-66
2022/04/10 05:07:08;;;;;;;5.30;1.25;;;2.50;95.70;;;;;;5029820;28;20124;-66
2022/04/10 05:09:34;;;;;;;3.92;1.63;;;2.50;95.70;;;;;;5031883;28;20017;-67
2022/04/10 05:11:59;;;;;;;3.72;1.48;;;2.50;95.80;;;;;;5031460;28;20385;-66
2022/04/10 05:14:25;;;;;;;2.97;1.67;;;2.50;95.80;;;;;;5031773;28;20041;-66
2022/04/10 05:16:51;;;;;;;3.40;1.48;;;2.50;95.80;;;;;;5031697;28;20045;-66
2022/04/10 05:19:16;;;;;;;3.50;1.73;;;2.50;95.90;;;;;;5030319;28;20030;-66
2022/04/10 05:21:42;;;;;;;4.63;1.75;;;2.50;95.90;;;;;;5032720;28;20102;-66
2022/04/10 05:24:07;;;;;;;4.82;1.80;;;2.60;96.00;;;;;;5035846;28;20072;-66
2022/04/10 05:26:33;;;;;;;3.17;1.70;;;2.60;96.00;;;;;;5035660;28;20029;-66
2022/04/10 05:28:58;;;;;;;3.70;1.83;;;2.60;96.10;;;;;;5035533;28;20030;-66
2022/04/10 05:31:24;;;;;;;2.67;1.73;;;2.60;96.10;;;;;;5035275;28;20477;-66
2022/04/10 05:33:50;;;;;;;4.18;1.60;;;2.60;96.10;;;;;;5035754;28;20022;-66
2022/04/10 05:36:15;;;;;;;3.83;1.73;;;2.60;96.10;;;;;;5051425;28;20020;-66
2022/04/10 05:38:41;;;;;;;3.33;1.40;;;2.60;96.10;;;;;;5055410;28;20023;-66
2022/04/10 05:41:06;;;;;;;4.32;1.77;;;2.60;96.10;;;;;;5053872;28;20025;-66
2022/04/10 05:43:32;;;;;;;6.20;2.00;;;2.70;96.20;;;;;;5055381;28;20032;-66
2022/04/10 05:45:57;;;;;;;4.22;2.28;;;2.70;96.20;;;;;;5054991;28;20094;-66
2022/04/10 05:48:23;;;;;;;5.50;2.20;;;2.70;96.20;;;;;;5054011;28;20036;-66
2022/04/10 05:50:48;;;;;;;7.68;2.17;;;2.70;96.30;;;;;;5052660;28;20032;-67
2022/04/10 05:53:14;;;;;;;3.28;1.70;;;2.80;96.30;;;;;;5040573;28;20111;-67
2022/04/10 05:55:40;;;;;;;5.10;1.92;;;2.80;96.30;;;;;;5042320;28;20060;-66
2022/04/10 05:58:06;;;;;;;5.55;2.10;;;2.80;96.30;;;;;;5049308;28;20045;-66
2022/04/10 06:00:32;;;;;;;6.38;2.40;;;2.80;96.30;;;;;;5053118;28;20029;-66
2022/04/10 06:03:02;;;;;;;5.95;1.92;;;2.90;96.40;;;;;;5054429;28;20028;-66
2022/04/10 06:05:28;;;;;;;6.10;2.65;;;2.90;96.40;;;;;;5039633;28;20030;-66
2022/04/10 06:07:53;;;;;;;5.65;2.63;;;2.90;96.50;;;;;;5034757;28;20026;-67
2022/04/10 06:10:19;;;;;;;4.75;2.10;;;3.00;96.50;;;;;;5034258;28;20366;-66
2022/04/10 06:12:44;;;;;;;4.03;2.38;;;3.00;96.60;;;;;;5034702;28;20022;-66
2022/04/10 06:15:10;;;;;;;5.63;2.47;;;3.00;96.60;;;;;;5034551;28;20030;-67
2022/04/10 06:17:36;;;;;;;4.50;2.20;;;3.10;96.70;;;;;;5042246;28;20128;-66
2022/04/10 06:20:01;;;;;;;4.75;2.15;;;3.10;96.70;;;;;;5052282;28;20017;-66
2022/04/10 06:22:27;;;;;;;5.80;2.65;;;3.10;96.70;;;;;;5049094;28;20049;-66
2022/04/10 06:24:54;;;;;;;4.20;2.33;;;3.20;96.80;;;;;;5049631;28;20527;-66
2022/04/10 06:27:20;;;;;;;2.78;1.75;;;3.20;96.80;;;;;;5052583;28;20020;-66
2022/04/10 06:29:46;;;;;;;3.40;2.38;;;3.20;96.90;;;;;;5049953;28;20111;-66
2022/04/10 06:32:13;;;;;;;4.22;2.20;;;3.30;96.90;;;;;;5052651;28;20025;-66
2022/04/10 06:34:38;;;;;;;3.58;2.60;;;3.30;97.00;;;;;;5048701;28;20021;-66
2022/04/10 06:37:04;;;;;;;3.72;2.17;;;3.40;97.10;;;;;;5052210;28;20369;-66
2022/04/10 06:39:30;;;;;;;4.60;2.10;;;3.40;97.10;;;;;;5050878;28;20063;-66
2022/04/10 06:41:55;;;;;;;4.28;2.45;;;3.50;97.20;;;;;;5046241;28;20037;-66
2022/04/10 06:44:21;;;;;;;5.32;2.80;;;3.50;97.30;;;;;;5049601;28;20385;-66
2022/04/10 06:46:46;;;;;;;7.38;2.78;;;3.60;97.40;;;;;;5051132;28;20103;-66
2022/04/10 06:49:12;;;;;;;5.78;2.70;;;3.60;97.50;;;;;;5046906;28;20112;-66
2022/04/10 06:51:38;;;;;;;5.65;2.85;;;3.70;97.60;;;;;;5052057;28;20025;-66
2022/04/10 06:54:04;;;;;;;8.00;2.55;;;3.80;97.70;;;;;;5052181;28;20115;-66
2022/04/10 06:56:30;;;;;;;4.32;2.53;;;3.80;97.70;;;;;;5052254;28;20099;-66
2022/04/10 06:58:55;;;;;;;4.13;2.30;;;3.90;97.70;;;;;;5052190;28;20230;-66
2022/04/10 07:01:21;;;;;;;6.05;2.75;;;4.00;97.80;;;;;;5051913;28;20426;-66
2022/04/10 07:03:46;;;;;;;3.97;2.40;;;4.10;97.90;;;;;;5049348;28;20480;-66
2022/04/10 07:06:12;;;;;;;8.07;3.92;;;4.20;98.00;;;;;;5051911;28;20108;-66
2022/04/10 07:08:37;;;;;;;5.22;2.55;;;4.30;98.10;;;;;;5053287;28;20499;-66
2022/04/10 07:11:03;;;;;;;7.65;2.30;;;4.40;98.20;;;;;;5052344;28;20034;-65
2022/04/10 07:13:28;;;;;;;6.80;2.60;;;4.50;98.20;;;;;;5053534;28;20479;-65
2022/04/10 07:15:54;;;;;;;6.97;2.72;;;4.60;98.30;;;;;;5053437;28;20025;-66
2022/04/10 07:18:20;;;;;;;9.05;2.80;;;4.70;98.40;;;;;;5051493;28;20052;-66
2022/04/10 07:20:45;;;;;;;7.45;2.47;;;4.90;98.50;;;;;;5052902;28;20116;-66
2022/04/10 07:25:56;;;;;;;4.10;1.10;;;5.20;98.10;;;;;;5052091;28;20039;-67
2022/04/10 07:28:22;;;;;;;5.70;1.00;;;5.30;97.60;;;;;;5053045;28;20025;-66
2022/04/10 07:30:48;;;;;;;4.93;1.55;;;5.50;97.30;;;;;;5053027;28;20085;-66
2022/04/10 07:33:13;;;;;;;3.75;1.27;;;5.60;97.10;;;;;;5053002;28;20025;-66
2022/04/10 07:35:40;;;;;;;5.13;1.63;;;5.70;96.90;;;;;;5052922;28;20032;-66
2022/04/10 07:38:06;;;;;;;4.20;1.70;;;5.80;96.60;;;;;;5052700;28;20021;-66
2022/04/10 07:40:33;;;;;;;4.65;1.08;;;5.90;96.70;;;;;;5052851;28;20040;-66
2022/04/10 07:42:59;;;;;;;2.72;1.00;;;6.00;96.30;;;;;;5052770;28;20060;-66
2022/04/10 07:48:09;;;;;;;2.80;1.10;;;6.10;96.00;;;;;;5053026;28;20082;-66
2022/04/10 07:50:34;;;;;;;4.55;1.02;;;6.20;95.80;;;;;;5052630;28;20029;-66
2022/04/10 07:53:00;;;;;;;4.05;0.77;;;6.30;95.50;;;;;;5051630;28;20174;-66
2022/04/10 07:55:26;;;;;;;3.15;1.05;;;6.40;95.30;;;;;;5052054;28;20028;-66
2022/04/10 07:57:52;;;;;;;4.28;0.85;;;6.50;95.00;;;;;;5051098;28;20104;-66
2022/04/10 08:00:18;;;;;;;3.20;1.05;;;6.50;94.80;;;;;;5050877;28;20128;-65
2022/04/10 08:02:52;;;;;;;3.22;0.75;;;6.60;94.70;;;;;;5048066;28;20473;-66
2022/04/10 08:05:19;;;;;;;6.07;1.25;;;6.60;94.60;;;;;;5035114;28;20048;-66
2022/04/10 08:07:46;;;;;;;4.10;0.82;;;6.70;94.50;;;;;;5046538;28;20021;-66
2022/04/10 08:10:12;;;;;;;4.47;0.80;;;6.80;94.30;;;;;;5049236;28;20025;-67
2022/04/10 08:12:39;;;;;;;7.00;0.90;;;6.80;94.20;;;;;;5049830;28;20021;-67
2022/04/10 08:15:05;;;;;;;2.28;0.70;;;6.90;94.10;;;;;;5052385;28;20017;-66
2022/04/10 08:17:30;;;;;;;1.95;0.90;;;7.00;93.90;;;;;;5052132;28;20055;-66
2022/04/10 08:19:56;;;;;;;1.40;0.65;;;7.10;93.80;;;;;;5052161;28;20037;-66
2022/04/10 08:22:27;;;;;;;3.72;0.77;;;7.20;93.50;;;;;;5051891;28;20508;-66
2022/04/10 08:24:53;;;;;;;4.68;1.33;;;7.30;93.10;;;;;;5051924;28;20036;-66
2022/04/10 08:27:19;;;;;;;2.92;0.80;;;7.30;92.80;;;;;;5050357;28;20033;-66
2022/04/10 08:29:45;;;;;;;5.15;0.80;;;7.30;92.60;;;;;;5047896;28;20028;-66
2022/04/10 08:32:10;;;;;;;2.65;0.93;;;7.40;92.50;;;;;;5046778;28;20021;-66
2022/04/10 08:34:36;;;;;;;2.03;0.55;;;7.40;92.40;;;;;;5034712;28;20029;-66
2022/04/10 08:37:05;;;;;;;2.60;0.68;;;7.40;92.20;;;;;;5051063;28;20040;-66
2022/04/10 08:39:31;;;;;;;3.13;0.80;;;7.40;92.00;;;;;;5050318;28;20017;-66
2022/04/10 08:42:02;;;;;;;3.20;0.70;;;7.40;91.80;;;;;;5047606;28;20800;-67
2022/04/10 08:44:29;;;;;;;4.38;0.70;;;7.50;91.80;;;;;;5048639;28;20048;-66
2022/04/10 08:46:55;;;;;;;2.15;0.70;;;7.50;91.80;;;;;;5047966;28;20021;-66
2022/04/10 08:49:23;;;;;;;4.05;0.90;;;7.60;91.80;;;;;;5045509;28;20028;-66
2022/04/10 08:51:50;;;;;;;1.73;0.70;;;7.70;91.80;;;;;;5049011;28;20063;-66
2022/04/10 08:54:18;;;;;;;3.38;0.60;;;7.80;91.90;;;;;;5045023;28;20203;-66
2022/04/10 08:56:44;;;;;;;3.13;0.90;;;7.80;91.70;;;;;;5046799;28;20017;-66
2022/04/10 08:59:09;;;;;;;4.07;0.90;;;7.90;91.50;;;;;;5050128;28;20078;-66
2022/04/10 09:01:35;;;;;;;3.55;0.80;;;7.90;91.30;;;;;;5047534;28;20099;-66
2022/04/10 09:04:00;;;;;;;5.80;0.93;;;8.00;91.10;;;;;;5049698;28;20029;-68
2022/04/10 09:06:26;;;;;;;4.95;0.60;;;8.10;90.90;;;;;;5032187;28;20036;-67
2022/04/10 09:08:51;;;;;;;3.13;0.73;;;8.10;90.70;;;;;;5048252;28;20098;-67
2022/04/10 09:11:17;;;;;;;4.22;0.70;;;8.20;90.40;;;;;;5045172;28;20858;-66
2022/04/10 09:13:48;;;;;;;2.75;0.60;;;8.30;89.70;;;;;;5047398;28;20024;-67
2022/04/10 09:16:20;;;;;;;2.65;0.60;;;8.40;89.30;;;;;;5049860;28;20155;-66
2022/04/10 09:18:55;;;;;;;5.18;0.80;;;8.40;88.60;;;;;;5047723;28;20026;-67
2022/04/10 09:21:23;;;;;;;2.45;0.45;;;8.50;88.20;;;;;;5049898;28;20155;-66
2022/04/10 09:24:14;;;;;;;2.22;0.70;;;8.60;88.10;;;;;;5050507;28;20031;-66
2022/04/10 09:26:50;;;;;;;2.55;0.80;;;8.70;87.70;;;;;;5051385;28;20025;-67
2022/04/10 09:29:20;;;;;;;2.60;0.55;;;8.80;86.70;;;;;;5051477;28;20017;-66
2022/04/10 09:31:45;;;;;;;;;;;8.90;85.80;;;;;;5047095;28;20063;-67
2022/04/10 09:34:15;;;;;;;5.82;0.80;;;8.90;85.10;;;;;;5046885;28;20423;-66
2022/04/10 09:36:43;;;;;;;2.75;0.55;;;9.10;85.00;;;;;;5047341;28;20025;-67
2022/04/10 09:39:14;;;;;;;4.72;1.95;;;9.20;83.50;;;;;;5047555;28;20021;-67
2022/04/10 09:41:42;;;;;;;5.10;0.70;;;9.40;82.00;;;;;;5045231;28;20087;-67
2022/04/10 09:44:12;;;;;;;4.45;0.70;;;9.50;81.20;;;;;;5050063;28;20024;-67
2022/04/10 09:46:38;;;;;;;2.83;0.50;;;9.60;79.90;;;;;;5049501;28;20166;-67
2022/04/10 09:49:10;;;;;;;2.65;0.68;;;9.70;79.50;;;;;;5048758;28;20036;-66
2022/04/10 09:51:35;;;;;;;2.63;0.50;;;9.90;79.50;;;;;;5031793;28;20392;-67
2022/04/10 09:54:03;;;;;;;1.65;0.43;;;10.00;78.90;;;;;;5049414;28;20481;-67
2022/04/10 09:56:29;;;;;;;4.85;0.60;;;10.10;78.50;;;;;;5045321;28;20057;-67
2022/04/10 09:59:01;;;;;;;3.17;0.70;;;10.10;78.30;;;;;;5049028;28;20053;-67
2022/04/10 10:01:28;;;;;;;3.50;0.70;;;10.20;77.90;;;;;;5050464;28;20524;-67
2022/04/10 10:03:56;;;;;;;5.53;1.38;;;10.20;77.30;;;;;;5043666;28;20052;-67
2022/04/10 10:06:21;;;;;;;3.70;0.77;;;10.30;76.60;;;;;;5042812;28;20057;-67
2022/04/10 10:08:49;;;;;;;3.35;0.70;;;10.50;76.30;;;;;;5051167;28;20025;-67
2022/04/10 10:11:14;;;;;;;3.20;0.88;;;10.70;76.00;;;;;;5049730;28;20088;-67
2022/04/10 10:13:40;;;;;;;4.35;0.70;;;10.90;75.60;;;;;;5050067;28;20017;-67
2022/04/10 10:16:07;;;;;;;3.05;0.75;;;10.90;74.60;;;;;;5050521;28;20540;-68
2022/04/10 10:18:33;;;;;;;3.00;0.52;;;10.90;74.10;;;;;;5045129;28;20025;-67
2022/04/10 10:20:58;;;;;;;4.43;0.60;;;10.90;73.60;;;;;;5034798;28;20025;-67
2022/04/10 10:23:26;;;;;;;3.65;0.57;;;11.00;73.80;;;;;;5051610;28;20028;-67
2022/04/10 10:26:04;;;;;;;3.30;0.77;;;11.20;73.70;;;;;;5052925;28;20464;-67
2022/04/10 10:28:56;;;;;;;3.35;0.90;;;11.30;72.20;;;;;;5052638;28;20492;-67
2022/04/10 10:31:43;;;;;;;3.67;0.57;;;11.20;71.50;;;;;;5052815;28;20755;-67
2022/04/10 10:34:09;;;;;;;3.67;0.73;;;11.20;72.10;;;;;;5050115;28;20071;-67
2022/04/10 10:36:35;;;;;;;2.65;0.60;;;11.30;71.60;;;;;;5046727;28;20025;-67
2022/04/10 10:39:05;;;;;;;2.95;0.80;;;11.50;71.40;;;;;;5048256;28;20017;-67
2022/04/10 10:41:32;;;;;;;2.35;0.55;;;11.70;71.40;;;;;;5049659;28;20021;-67
2022/04/10 10:44:13;;;;;;;9.02;0.80;;;11.80;70.30;;;;;;5048435;28;20472;-67
2022/04/10 10:47:02;;;;;;;1.80;0.40;;;12.00;70.10;;;;;;5051331;28;20033;-67
2022/04/10 10:49:32;;;;;;;1.67;0.40;;;12.20;69.20;;;;;;5054136;28;20451;-67
2022/04/10 10:52:05;;;;;;;2.45;0.77;;;12.30;69.00;;;;;;5054088;28;20028;-67
2022/04/10 10:54:42;;;;;;;2.35;0.50;;;12.70;67.70;;;;;;5054041;28;20025;-67
2022/04/10 10:57:31;;;;;;;3.75;0.90;;;13.10;67.70;;;;;;5053721;28;20048;-67
2022/04/10 11:00:04;;;;;;;2.53;0.60;;;13.70;67.50;;;;;;5053967;28;20032;-67
2022/04/10 11:02:35;;;;;;;2.67;0.55;;;14.10;65.80;;;;;;5052507;28;20029;-67
2022/04/10 11:05:03;;;;;;;3.28;0.60;;;15.30;64.40;;;;;;5053338;28;20036;-67
2022/04/10 11:07:29;;;;;;;2.57;0.57;;;17.20;58.70;;;;;;5047529;28;20037;-67
2022/04/10 11:09:59;;;;;;;5.38;0.77;;;19.40;53.70;;;;;;5047607;28;20354;-68
2022/04/10 11:12:30;;;;;;;2.53;0.70;;;21.20;49.40;;;;;;5047339;28;20020;-68
2022/04/10 11:14:56;;;;;;;3.67;0.60;;;22.80;45.80;;;;;;5050550;28;20489;-68
2022/04/10 11:17:32;;;;;;;2.63;0.50;;;23.10;42.40;;;;;;5051678;28;20020;-67
2022/04/10 11:20:05;;;;;;;3.53;0.52;;;23.00;43.10;;;;;;5048127;28;20116;-67
2022/04/10 11:22:37;;;;;;;2.97;0.40;;;23.00;44.00;;;;;;5049070;28;20079;-68
2022/04/10 11:25:09;;;;;;;3.10;0.65;;;22.80;45.00;;;;;;5052412;28;20048;-68
2022/04/10 11:27:53;;;;;;;2.17;0.65;;;22.10;45.40;;;;;;5048775;28;20370;-68
2022/04/10 11:30:39;;;;;;;3.63;0.77;;;21.10;45.70;;;;;;5048693;28;20055;-68
2022/04/10 11:33:06;;;;;;;4.38;0.85;;;20.00;45.90;;;;;;5047333;28;20128;-67
2022/04/10 11:35:40;;;;;;;3.15;0.65;;;19.00;46.20;;;;;;5041993;28;20118;-68
2022/04/10 11:38:08;;;;;;;3.35;0.50;;;18.30;47.50;;;;;;5043170;28;20021;-68
2022/04/10 11:40:37;;;;;;;2.03;0.50;;;18.50;48.70;;;;;;5045832;28;20032;-67
2022/04/10 11:43:04;;;;;;;1.63;0.70;;;20.30;48.00;;;;;;5029407;28;20033;-67
2022/04/10 11:45:31;;;;;;;1.77;0.45;;;21.70;46.40;;;;;;5044109;28;20029;-68
2022/04/10 11:47:57;;;;;;;1.70;0.73;;;23.60;44.50;;;;;;5046927;28;20491;-68
2022/04/10 11:50:24;;;;;;;1.40;0.50;;;25.70;42.20;;;;;;5043703;28;20025;-68
2022/04/10 11:53:06;;;;;;;2.05;0.50;;;27.50;39.90;;;;;;5046678;28;20020;-68
2022/04/10 11:55:32;;;;;;;2.60;0.60;;;29.20;38.30;;;;;;5046554;28;20024;-68
2022/04/10 11:57:58;;;;;;;3.38;0.80;;;29.10;36.00;;;;;;5046683;28;20025;-68
2022/04/10 12:00:24;;;;;;;2.58;0.60;;;27.70;35.40;;;;;;5045859;28;20032;-68
2022/04/10 12:02:53;;;;;;;2.60;0.80;;;28.00;37.10;;;;;;5046460;28;20163;-68
2022/04/10 12:05:31;;;;;;;2.38;0.60;;;29.00;36.30;;;;;;5045511;28;20133;-68
2022/04/10 12:08:01;;;;;;;3.17;0.50;;;29.30;36.20;;;;;;5049359;28;20036;-68
2022/04/10 12:10:27;;;;;;;2.15;0.70;;;30.00;34.50;;;;;;5050026;28;20029;-68
2022/04/10 12:12:53;;;;;;;2.85;0.55;;;30.30;34.30;;;;;;5047019;28;20512;-68
2022/04/10 12:15:19;;;;;;;2.42;0.65;;;30.50;33.00;;;;;;5037354;28;20094;-68
2022/04/10 12:17:50;;;;;;;2.85;0.68;;;30.40;32.70;;;;;;5032306;28;20051;-68
2022/04/10 12:20:15;;;;;;;1.60;0.60;;;30.30;31.90;;;;;;5031954;28;20030;-68
2022/04/10 12:22:42;;;;;;;4.00;1.02;;;30.00;32.30;;;;;;5032280;28;20038;-68
2022/04/10 12:25:09;;;;;;;1.33;0.50;;;29.80;32.20;;;;;;5032055;28;20036;-69
2022/04/10 12:27:35;;;;;;;1.92;0.50;;;29.30;32.60;;;;;;5032376;28;20028;-69
2022/04/10 12:30:08;;;;;;;3.42;0.70;;;28.90;33.50;;;;;;5031805;28;20021;-68
2022/04/10 12:32:34;;;;;;;1.67;0.50;;;28.60;32.90;;;;;;5032475;28;20026;-68
2022/04/10 12:35:10;;;;;;;3.20;0.80;;;28.20;33.00;;;;;;5039282;28;20326;-68
2022/04/10 12:37:37;;;;;;;1.45;0.68;;;27.60;33.50;;;;;;5052229;28;20480;-68
2022/04/10 12:40:04;;;;;;;2.50;0.63;;;26.80;34.30;;;;;;5050605;28;20036;-68
2022/04/10 12:42:38;;;;;;;1.65;0.70;;;26.50;34.90;;;;;;5052068;28;20380;-68
2022/04/10 12:45:10;;;;;;;1.60;0.55;;;26.50;34.50;;;;;;5051644;28;20021;-68
2022/04/10 12:47:47;;;;;;;3.33;0.70;;;26.50;33.90;;;;;;5051842;28;20025;-68
2022/04/10 12:50:15;;;;;;;1.70;0.47;;;26.30;33.70;;;;;;5051709;28;20033;-67
2022/04/10 12:52:42;;;;;;;1.70;0.50;;;26.20;33.60;;;;;;5051982;28;20017;-68
2022/04/10 12:55:29;;;;;;;2.00;0.50;;;26.00;33.10;;;;;;5042602;28;20500;-68
2022/04/10 12:57:56;;;;;;;1.27;0.40;;;25.80;32.70;;;;;;5032038;28;20032;-68
2022/04/10 13:00:26;;;;;;;1.60;0.50;;;25.60;33.20;;;;;;5031697;28;20493;-68